Time;durP1;ratioP1;P1;durP2;ratioP2;P2;SDS_P1;SDS_P2;PMS_P1;PMS_P2;Temp;Humidity;BMP_temperature;BMP_pressure;BME280_temperature;BME280_humidity;BME280_pressure;Samples;Min_cycle;Max_cycle;Signal;HPM_P1;HPM_P2
2021/03/12 00:02:08;;;;;;;1.67;1.33;;;10.70;1.00;;;;;;5066300;28;20298;-59
2021/03/12 00:04:33;;;;;;;4.30;1.10;;;10.80;1.00;;;;;;5070785;28;20236;-61
2021/03/12 00:06:59;;;;;;;5.50;1.03;;;10.80;1.00;;;;;;5070883;28;20227;-59
2021/03/12 00:09:25;;;;;;;6.10;1.17;;;10.70;1.00;;;;;;5085949;28;20189;-60
2021/03/12 00:11:52;;;;;;;2.60;1.10;;;10.60;1.00;;;;;;5072023;28;20230;-58
2021/03/12 00:14:18;;;;;;;5.00;1.10;;;10.60;1.00;;;;;;5078682;28;20173;-60
2021/03/12 00:16:44;;;;;;;4.20;1.53;;;10.70;1.00;;;;;;5069484;28;20450;-60
2021/03/12 00:19:09;;;;;;;1.20;0.80;;;10.70;1.00;;;;;;5071492;28;20443;-61
2021/03/12 00:21:35;;;;;;;1.17;0.60;;;10.70;1.00;;;;;;5075891;28;20234;-58
2021/03/12 00:24:00;;;;;;;2.03;0.87;;;10.60;1.00;;;;;;5069568;28;20223;-60
2021/03/12 00:26:26;;;;;;;5.03;1.10;;;10.50;1.00;;;;;;5069918;28;20209;-61
2021/03/12 00:28:52;;;;;;;1.27;1.17;;;10.40;1.00;;;;;;5071310;28;20217;-60
2021/03/12 00:31:18;;;;;;;4.87;1.80;;;10.30;1.00;;;;;;5066406;28;20451;-59
2021/03/12 00:33:43;;;;;;;1.70;1.60;;;10.10;1.00;;;;;;5064976;28;20192;-60
2021/03/12 00:36:09;;;;;;;3.97;2.10;;;10.00;1.00;;;;;;5070911;28;20236;-61
2021/03/12 00:38:34;;;;;;;3.50;1.70;;;9.90;1.00;;;;;;5068887;28;20205;-60
2021/03/12 00:41:08;;;;;;;2.40;1.90;;;9.60;1.00;;;;;;5071664;28;20187;-61
2021/03/12 00:43:36;;;;;;;2.90;2.60;;;9.40;1.00;;;;;;5068101;28;20188;-58
2021/03/12 00:46:04;;;;;;;2.17;1.60;;;9.30;1.00;;;;;;5071138;28;20453;-60
2021/03/12 00:48:31;;;;;;;1.80;1.70;;;9.40;1.00;;;;;;5069727;28;20449;-59
2021/03/12 00:50:57;;;;;;;2.30;2.10;;;9.40;1.00;;;;;;5070985;28;20459;-60
2021/03/12 00:53:22;;;;;;;3.40;1.80;;;9.40;1.00;;;;;;5068652;28;20446;-60
2021/03/12 00:55:49;;;;;;;6.17;1.70;;;9.40;1.00;;;;;;5070400;28;20462;-59
2021/03/12 00:58:15;;;;;;;4.30;2.30;;;9.40;1.00;;;;;;5091141;28;20179;-58
2021/03/12 01:00:41;;;;;;;2.60;1.93;;;9.40;1.00;;;;;;5073910;28;20450;-59
2021/03/12 01:03:10;;;;;;;3.17;1.87;;;9.40;1.00;;;;;;5067654;28;20952;-58
2021/03/12 01:05:35;;;;;;;5.10;2.27;;;9.40;1.00;;;;;;5070682;28;20207;-59
2021/03/12 01:08:01;;;;;;;4.17;2.47;;;9.40;1.00;;;;;;5068326;28;20612;-61
2021/03/12 01:10:27;;;;;;;4.90;2.53;;;9.50;1.00;;;;;;5080275;28;20511;-60
2021/03/12 01:12:53;;;;;;;3.10;2.30;;;9.40;1.00;;;;;;5075257;28;20196;-59
2021/03/12 01:15:22;;;;;;;3.13;1.90;;;9.40;1.00;;;;;;5054854;28;20442;-58
2021/03/12 01:17:47;;;;;;;3.53;2.27;;;9.40;1.00;;;;;;5063550;28;20950;-58
2021/03/12 01:20:17;;;;;;;4.47;1.73;;;9.40;1.00;;;;;;5068735;28;20455;-59
2021/03/12 01:22:45;;;;;;;4.40;2.00;;;9.60;1.00;;;;;;5090962;28;20274;-60
2021/03/12 01:25:15;;;;;;;2.90;2.13;;;9.50;1.00;;;;;;5087071;28;20494;-59
2021/03/12 01:27:40;;;;;;;1.87;1.77;;;9.60;1.00;;;;;;5069213;28;20588;-59
2021/03/12 01:30:23;;;;;;;2.33;1.50;;;9.70;1.00;;;;;;5070289;28;21107;-60
2021/03/12 01:32:50;;;;;;;2.10;1.50;;;9.70;1.00;;;;;;5070141;28;20199;-59
2021/03/12 01:35:17;;;;;;;5.40;1.23;;;9.00;1.00;;;;;;5069466;28;20476;-60
2021/03/12 01:37:43;;;;;;;2.77;1.30;;;9.90;1.00;;;;;;5070529;28;20471;-59
2021/03/12 01:40:13;;;;;;;0.97;0.73;;;9.90;1.00;;;;;;5070441;28;20446;-60
2021/03/12 01:42:38;;;;;;;1.20;0.80;;;9.90;1.00;;;;;;5068047;28;20460;-61
2021/03/12 01:45:17;;;;;;;1.90;1.13;;;10.00;1.00;;;;;;5070024;28;20454;-59
2021/03/12 01:47:42;;;;;;;1.80;0.60;;;9.80;1.00;;;;;;5069221;28;20710;-58
2021/03/12 01:50:08;;;;;;;2.50;0.90;;;9.80;1.00;;;;;;5070233;28;20438;-59
2021/03/12 01:52:35;;;;;;;1.73;0.87;;;9.80;1.00;;;;;;5087415;28;20238;-60
2021/03/12 01:55:01;;;;;;;0.80;0.70;;;9.80;1.00;;;;;;5070458;28;20491;-60
2021/03/12 01:57:26;;;;;;;5.30;1.80;;;9.80;1.00;;;;;;5069352;28;20839;-58
2021/03/12 01:59:52;;;;;;;4.47;2.90;;;9.70;1.00;;;;;;5070121;28;20207;-59
2021/03/12 02:02:18;;;;;;;3.17;2.80;;;9.50;1.00;;;;;;5082462;28;20192;-59
2021/03/12 02:04:43;;;;;;;3.63;3.10;;;9.00;1.00;;;;;;5069543;28;20191;-60
2021/03/12 02:07:09;;;;;;;3.57;3.27;;;8.70;1.00;;;;;;5069326;28;20314;-59
2021/03/12 02:09:36;;;;;;;3.17;2.97;;;8.30;1.00;;;;;;5076047;28;20182;-58
2021/03/12 02:12:14;;;;;;;3.60;3.30;;;8.10;32.90;;;;;;5082874;28;20430;-58
2021/03/12 02:14:59;;;;;;;4.00;3.10;;;8.00;99.90;;;;;;5073694;28;20437;-59
2021/03/12 02:17:32;;;;;;;2.87;2.47;;;7.90;99.90;;;;;;5079788;28;20942;-58
2021/03/12 02:20:33;;;;;;;3.70;2.73;;;7.90;99.90;;;;;;5074088;28;20962;-59
2021/03/12 02:23:22;;;;;;;3.90;2.73;;;7.90;99.90;;;;;;5073760;28;20466;-59
2021/03/12 02:25:58;;;;;;;3.70;3.10;;;7.90;99.90;;;;;;5072989;28;20935;-60
2021/03/12 02:28:25;;;;;;;7.40;2.70;;;7.80;99.90;;;;;;5071442;28;20468;-60
2021/03/12 02:30:51;;;;;;;3.40;3.10;;;7.80;99.90;;;;;;5073629;28;20431;-60
2021/03/12 02:33:17;;;;;;;4.87;3.27;;;7.80;99.90;;;;;;5072871;28;20511;-59
2021/03/12 02:35:46;;;;;;;4.40;3.10;;;7.80;99.90;;;;;;5072653;28;20172;-60
2021/03/12 02:38:12;;;;;;;5.97;3.57;;;8.00;99.90;;;;;;5072977;28;20454;-59
2021/03/12 02:40:38;;;;;;;4.70;3.07;;;8.00;99.90;;;;;;5070659;28;20458;-59
2021/03/12 02:43:04;;;;;;;7.50;3.87;;;8.00;99.90;;;;;;5072751;28;20507;-61
2021/03/12 02:45:30;;;;;;;3.67;2.70;;;8.10;99.90;;;;;;5072339;28;20706;-61
2021/03/12 02:47:57;;;;;;;3.97;2.47;;;8.10;99.90;;;;;;5072516;28;20465;-60
2021/03/12 02:50:22;;;;;;;5.83;3.97;;;8.10;99.90;;;;;;5071346;28;20462;-59
2021/03/12 02:52:48;;;;;;;2.30;2.10;;;8.20;99.90;;;;;;5071993;28;20458;-61
2021/03/12 02:55:15;;;;;;;5.50;2.50;;;8.20;99.90;;;;;;5071065;28;20453;-59
2021/03/12 02:57:41;;;;;;;2.47;1.50;;;8.40;99.90;;;;;;5073292;28;20533;-59
2021/03/12 03:00:08;;;;;;;3.03;1.23;;;8.60;99.90;;;;;;5069594;28;20457;-60
2021/03/12 03:02:34;;;;;;;2.67;1.30;;;8.60;99.90;;;;;;5071881;28;20180;-59
2021/03/12 03:05:01;;;;;;;5.77;1.47;;;8.90;99.90;;;;;;5072764;28;20449;-59
2021/03/12 03:07:27;;;;;;;5.03;2.40;;;8.90;60.60;;;;;;5070659;28;21125;-59
2021/03/12 03:09:54;;;;;;;1.53;0.80;;;9.10;1.00;;;;;;5071296;28;20532;-59
2021/03/12 03:12:22;;;;;;;3.20;0.93;;;9.20;1.00;;;;;;5072687;28;20839;-59
2021/03/12 03:14:53;;;;;;;2.47;0.80;;;9.30;1.00;;;;;;5068244;28;20446;-59
2021/03/12 03:17:20;;;;;;;4.70;0.93;;;9.20;1.00;;;;;;5062675;28;20450;-57
2021/03/12 03:19:49;;;;;;;0.87;0.87;;;9.10;1.00;;;;;;5071932;28;20503;-58
2021/03/12 03:22:17;;;;;;;2.87;0.97;;;9.10;1.00;;;;;;5072995;28;20473;-59
2021/03/12 03:24:43;;;;;;;1.80;0.80;;;9.10;1.00;;;;;;5071270;28;20549;-60
2021/03/12 03:27:09;;;;;;;2.67;0.80;;;9.00;1.00;;;;;;5072172;28;20593;-58
2021/03/12 03:29:34;;;;;;;3.70;1.03;;;9.10;1.00;;;;;;5072513;28;20188;-58
2021/03/12 03:32:00;;;;;;;3.63;2.50;;;9.20;1.00;;;;;;5074300;28;20183;-58
2021/03/12 03:34:26;;;;;;;3.13;1.10;;;9.20;1.00;;;;;;5071181;28;20191;-59
2021/03/12 03:36:52;;;;;;;3.27;0.97;;;9.20;1.00;;;;;;5072481;28;20943;-59
2021/03/12 03:39:18;;;;;;;1.80;0.97;;;9.20;1.00;;;;;;5071952;28;20441;-58
2021/03/12 03:41:49;;;;;;;1.77;0.97;;;9.40;1.00;;;;;;5071130;28;20702;-59
2021/03/12 03:44:18;;;;;;;3.80;1.07;;;9.20;1.00;;;;;;5072282;28;20184;-59
2021/03/12 03:46:46;;;;;;;1.97;0.80;;;9.30;1.00;;;;;;5070711;28;20561;-59
2021/03/12 03:49:16;;;;;;;3.50;1.97;;;9.30;1.00;;;;;;5072166;28;20520;-59
2021/03/12 03:51:43;;;;;;;3.20;0.90;;;9.20;1.00;;;;;;5069507;28;21547;-59
2021/03/12 03:54:12;;;;;;;1.33;0.80;;;9.20;1.00;;;;;;5070712;28;20476;-59
2021/03/12 03:56:39;;;;;;;1.87;1.00;;;9.30;1.00;;;;;;5072096;28;20507;-58
2021/03/12 03:59:05;;;;;;;2.57;0.70;;;9.30;1.00;;;;;;5070505;28;20442;-59
2021/03/12 04:01:32;;;;;;;2.43;0.83;;;9.30;1.00;;;;;;5071530;28;20452;-58
2021/03/12 04:03:59;;;;;;;2.43;1.00;;;9.20;1.00;;;;;;5070443;28;20954;-58
2021/03/12 04:06:28;;;;;;;2.93;0.90;;;9.20;1.00;;;;;;5070546;28;20453;-59
2021/03/12 04:08:56;;;;;;;7.93;0.93;;;9.20;1.00;;;;;;5066532;28;20439;-57
2021/03/12 04:11:22;;;;;;;4.03;0.90;;;9.10;1.00;;;;;;5067257;28;20446;-59
2021/03/12 04:13:48;;;;;;;1.33;0.70;;;9.10;1.00;;;;;;5070849;28;20799;-59
2021/03/12 04:16:14;;;;;;;2.10;0.67;;;9.00;1.00;;;;;;5070012;28;20202;-58
2021/03/12 04:18:41;;;;;;;1.50;0.80;;;8.90;1.00;;;;;;5069693;28;20435;-59
2021/03/12 04:21:07;;;;;;;1.60;0.57;;;8.90;1.00;;;;;;5070285;28;20187;-59
2021/03/12 04:23:33;;;;;;;1.87;0.60;;;8.80;1.00;;;;;;5067341;28;20522;-60
2021/03/12 04:25:59;;;;;;;1.33;0.67;;;8.80;1.00;;;;;;5070773;28;20475;-59
2021/03/12 04:28:25;;;;;;;1.07;0.63;;;8.70;1.00;;;;;;5071311;28;20477;-60
2021/03/12 04:30:51;;;;;;;2.40;0.80;;;8.70;1.00;;;;;;5070711;28;20460;-58
2021/03/12 04:33:17;;;;;;;2.13;0.80;;;8.70;1.00;;;;;;5070269;28;21217;-58
2021/03/12 04:35:43;;;;;;;6.83;1.47;;;8.70;1.00;;;;;;5071360;28;20435;-60
2021/03/12 04:38:09;;;;;;;4.03;1.00;;;8.70;1.00;;;;;;5071159;28;20186;-59
2021/03/12 04:40:36;;;;;;;1.73;1.00;;;8.50;1.00;;;;;;5069998;28;20977;-60
2021/03/12 04:43:03;;;;;;;1.80;1.07;;;8.50;1.00;;;;;;5070328;28;20448;-61
2021/03/12 04:45:29;;;;;;;1.13;1.03;;;8.50;1.00;;;;;;5069955;28;20484;-59
2021/03/12 04:47:58;;;;;;;0.87;0.60;;;8.40;1.00;;;;;;5071321;28;20481;-58
2021/03/12 04:50:26;;;;;;;0.83;0.80;;;8.30;1.00;;;;;;5086617;28;20824;-59
2021/03/12 04:52:54;;;;;;;2.13;1.20;;;8.30;1.00;;;;;;5090523;28;20910;-58
2021/03/12 04:55:20;;;;;;;2.70;0.70;;;8.40;1.00;;;;;;5077782;28;20434;-58
2021/03/12 04:57:46;;;;;;;0.90;0.80;;;8.40;1.00;;;;;;5070053;28;20520;-60
2021/03/12 05:00:13;;;;;;;1.80;0.83;;;8.40;1.00;;;;;;5068983;28;20638;-59
2021/03/12 05:02:39;;;;;;;1.57;0.80;;;8.40;1.00;;;;;;5071240;28;20953;-60
2021/03/12 05:05:07;;;;;;;1.97;0.77;;;8.40;1.00;;;;;;5070792;28;20536;-59
2021/03/12 05:07:34;;;;;;;1.77;0.80;;;8.40;1.00;;;;;;5078334;28;20476;-59
2021/03/12 05:10:03;;;;;;;4.03;1.00;;;8.40;1.00;;;;;;5074652;28;20445;-58
2021/03/12 05:12:30;;;;;;;2.10;0.70;;;8.50;1.00;;;;;;5069832;28;20990;-60
2021/03/12 05:14:55;;;;;;;2.30;1.07;;;8.50;1.00;;;;;;5075227;28;20474;-60
2021/03/12 05:17:22;;;;;;;2.77;1.30;;;8.50;1.00;;;;;;5091200;28;20518;-58
2021/03/12 05:19:48;;;;;;;3.27;1.00;;;8.50;1.00;;;;;;5089583;28;20207;-58
2021/03/12 05:22:13;;;;;;;2.30;0.70;;;8.60;1.00;;;;;;5091143;28;20433;-60
2021/03/12 05:24:39;;;;;;;2.70;0.80;;;8.50;1.00;;;;;;5070646;28;20310;-57
2021/03/12 05:27:05;;;;;;;3.87;0.90;;;8.50;1.00;;;;;;5071049;28;20218;-60
2021/03/12 05:29:30;;;;;;;0.60;0.60;;;8.70;1.00;;;;;;5070585;28;20180;-59
2021/03/12 05:31:56;;;;;;;1.47;1.00;;;8.60;1.00;;;;;;5070615;28;20533;-60
2021/03/12 05:34:22;;;;;;;2.63;1.07;;;8.60;1.00;;;;;;5070699;28;20229;-59
2021/03/12 05:36:48;;;;;;;1.70;0.70;;;8.60;1.00;;;;;;5070682;28;20191;-60
2021/03/12 05:39:13;;;;;;;0.73;0.60;;;8.50;1.00;;;;;;5070966;28;20438;-59
2021/03/12 05:41:39;;;;;;;0.70;0.70;;;8.30;1.00;;;;;;5070753;28;20200;-60
2021/03/12 05:44:06;;;;;;;1.43;0.73;;;8.30;1.00;;;;;;5072663;28;20202;-60
2021/03/12 05:46:34;;;;;;;2.00;0.70;;;8.40;1.00;;;;;;5074520;28;20211;-59
2021/03/12 05:49:01;;;;;;;2.10;0.60;;;7.30;1.00;;;;;;5074045;28;20440;-59
2021/03/12 05:51:28;;;;;;;0.67;0.57;;;8.40;1.00;;;;;;5074033;28;20833;-60
2021/03/12 05:53:54;;;;;;;0.90;0.60;;;8.30;1.00;;;;;;5072718;28;20453;-60
2021/03/12 05:56:20;;;;;;;1.30;0.57;;;8.40;1.00;;;;;;5073987;28;20497;-60
2021/03/12 05:58:46;;;;;;;1.03;0.50;;;8.20;1.00;;;;;;5074352;28;20943;-60
2021/03/12 06:01:12;;;;;;;3.80;0.70;;;8.20;1.00;;;;;;5074176;28;20441;-61
2021/03/12 06:03:41;;;;;;;0.80;0.80;;;8.30;1.00;;;;;;5073891;28;20425;-59
2021/03/12 06:06:07;;;;;;;1.10;1.00;;;8.40;1.00;;;;;;5073972;28;20847;-59
2021/03/12 06:08:32;;;;;;;2.03;1.17;;;8.60;1.00;;;;;;5073584;28;20552;-60
2021/03/12 06:10:58;;;;;;;1.57;0.97;;;8.60;1.00;;;;;;5074136;28;20188;-59
2021/03/12 06:13:23;;;;;;;4.70;1.80;;;8.60;1.00;;;;;;5073101;28;20203;-60
2021/03/12 06:15:49;;;;;;;2.57;0.83;;;8.50;1.00;;;;;;5073893;28;20656;-59
2021/03/12 06:18:21;;;;;;;0.90;0.63;;;8.60;1.00;;;;;;5073687;28;20187;-60
2021/03/12 06:20:47;;;;;;;1.50;0.77;;;8.30;1.00;;;;;;5073698;28;20183;-60
2021/03/12 06:23:38;;;;;;;0.60;0.60;;;8.30;1.00;;;;;;5073939;28;20457;-60
2021/03/12 06:26:04;;;;;;;1.60;0.90;;;8.20;1.00;;;;;;5074021;28;20445;-59
2021/03/12 06:28:31;;;;;;;0.97;0.87;;;8.20;1.00;;;;;;5073645;28;20559;-60
2021/03/12 06:30:57;;;;;;;0.67;0.67;;;8.10;1.00;;;;;;5074018;28;20433;-59
2021/03/12 06:33:28;;;;;;;1.83;0.80;;;8.10;1.00;;;;;;5073779;28;20448;-60
2021/03/12 06:35:54;;;;;;;1.87;1.00;;;8.10;1.00;;;;;;5073815;28;20540;-59
2021/03/12 06:38:20;;;;;;;0.83;0.83;;;8.10;1.00;;;;;;5073760;28;20441;-59
2021/03/12 06:40:46;;;;;;;0.80;0.57;;;8.20;1.00;;;;;;5073005;28;20450;-60
2021/03/12 06:43:19;;;;;;;1.17;0.93;;;8.30;1.00;;;;;;5072102;28;20210;-61
2021/03/12 06:45:51;;;;;;;1.07;0.70;;;8.30;1.00;;;;;;5089721;28;20240;-59
2021/03/12 06:48:17;;;;;;;1.70;0.80;;;8.30;1.00;;;;;;5082388;28;20469;-59
2021/03/12 06:50:59;;;;;;;0.93;0.80;;;8.40;1.00;;;;;;5072109;28;20483;-60
2021/03/12 06:53:34;;;;;;;1.80;0.90;;;8.50;1.00;;;;;;5073190;28;20861;-60
2021/03/12 06:56:08;;;;;;;2.23;0.80;;;8.60;1.00;;;;;;5072889;28;20922;-60
2021/03/12 06:58:34;;;;;;;1.73;0.90;;;8.40;1.00;;;;;;5081725;28;20464;-60
2021/03/12 07:01:01;;;;;;;2.10;0.80;;;8.50;1.00;;;;;;5083605;28;20498;-59
2021/03/12 07:03:29;;;;;;;1.67;1.00;;;8.50;1.00;;;;;;5079069;28;20445;-59
2021/03/12 07:05:59;;;;;;;2.10;0.60;;;8.60;1.00;;;;;;5072225;28;20525;-60
2021/03/12 07:08:32;;;;;;;2.43;1.03;;;8.80;1.00;;;;;;5072858;28;20461;-59
2021/03/12 07:10:59;;;;;;;0.70;0.70;;;8.90;1.00;;;;;;5072721;28;20474;-60
2021/03/12 07:13:26;;;;;;;3.53;0.80;;;9.00;1.00;;;;;;5090456;28;20489;-59
2021/03/12 07:15:54;;;;;;;1.50;1.00;;;8.90;1.00;;;;;;5080938;28;20784;-60
2021/03/12 07:18:20;;;;;;;1.30;0.73;;;;;;;;;;5072848;28;20846;-60
2021/03/12 07:20:47;;;;;;;2.00;1.00;;;9.00;1.00;;;;;;5071809;28;20529;-59
2021/03/12 07:23:14;;;;;;;4.33;1.10;;;9.00;1.00;;;;;;5076511;28;20559;-60
2021/03/12 07:25:43;;;;;;;3.13;1.03;;;9.10;1.00;;;;;;5087173;28;20453;-60
2021/03/12 07:28:14;;;;;;;2.07;1.20;;;9.00;1.00;;;;;;5077649;28;20469;-60
2021/03/12 07:30:41;;;;;;;1.07;0.83;;;9.00;1.00;;;;;;5085629;28;20445;-59
2021/03/12 07:33:07;;;;;;;0.80;0.70;;;9.00;1.00;;;;;;5072269;28;20472;-59
2021/03/12 07:35:35;;;;;;;2.83;0.93;;;9.10;1.00;;;;;;5070942;28;20460;-61
2021/03/12 07:38:05;;;;;;;0.87;0.87;;;9.20;1.00;;;;;;5076622;28;20919;-60
2021/03/12 07:40:31;;;;;;;1.10;0.70;;;9.10;1.00;;;;;;5092588;28;20901;-60
2021/03/12 07:42:57;;;;;;;0.83;0.50;;;9.20;1.00;;;;;;5092635;28;20436;-59
2021/03/12 07:45:23;;;;;;;2.63;1.27;;;9.20;1.00;;;;;;5074664;28;20845;-62
2021/03/12 07:47:49;;;;;;;2.10;1.00;;;9.20;1.00;;;;;;5089069;28;20460;-59
2021/03/12 07:50:37;;;;;;;3.80;0.80;;;9.20;1.00;;;;;;5092198;28;20437;-60
2021/03/12 07:53:03;;;;;;;1.13;0.70;;;9.30;1.00;;;;;;5071044;28;20924;-60
2021/03/12 07:55:35;;;;;;;2.03;0.90;;;9.20;1.00;;;;;;5071970;28;20423;-60
2021/03/12 07:58:01;;;;;;;1.93;1.17;;;9.20;1.00;;;;;;5071780;28;20442;-58
2021/03/12 08:00:27;;;;;;;3.23;0.90;;;9.20;1.00;;;;;;5071139;28;20451;-60
2021/03/12 08:02:54;;;;;;;1.00;0.80;;;9.00;1.00;;;;;;5071805;28;20441;-61
2021/03/12 08:05:31;;;;;;;1.67;0.83;;;8.90;1.00;;;;;;5071476;28;20191;-60
2021/03/12 08:07:57;;;;;;;1.67;1.10;;;9.00;1.00;;;;;;5077689;28;20594;-61
2021/03/12 08:10:23;;;;;;;2.77;0.83;;;8.90;1.00;;;;;;5088243;28;20451;-59
2021/03/12 08:12:49;;;;;;;1.43;1.00;;;9.10;1.00;;;;;;5071395;28;21010;-60
2021/03/12 08:15:29;;;;;;;2.70;1.30;;;9.40;1.00;;;;;;5071280;28;20443;-61
2021/03/12 08:17:58;;;;;;;3.73;1.00;;;9.50;1.00;;;;;;5071483;28;20444;-59
2021/03/12 08:20:23;;;;;;;4.00;1.20;;;9.40;1.00;;;;;;5071052;28;20449;-60
2021/03/12 08:22:54;;;;;;;1.47;1.07;;;9.40;1.00;;;;;;5069714;28;20790;-59
2021/03/12 08:25:31;;;;;;;2.00;1.20;;;9.40;1.00;;;;;;5071521;28;20188;-61
2021/03/12 08:27:59;;;;;;;2.10;0.90;;;9.40;1.00;;;;;;5089537;28;20499;-61
2021/03/12 08:30:25;;;;;;;3.17;1.30;;;9.30;1.00;;;;;;5090045;28;20906;-60
2021/03/12 08:32:55;;;;;;;0.73;0.73;;;9.20;1.00;;;;;;5089711;28;20445;-60
2021/03/12 08:35:35;;;;;;;2.77;1.00;;;9.20;1.00;;;;;;5092173;28;20258;-61
2021/03/12 08:38:11;;;;;;;2.53;0.70;;;9.30;1.00;;;;;;5077695;28;20946;-58
2021/03/12 08:40:42;;;;;;;2.97;1.10;;;9.40;1.00;;;;;;5071410;28;20445;-58
2021/03/12 08:43:11;;;;;;;2.80;1.10;;;9.50;1.00;;;;;;5069818;28;20437;-57
2021/03/12 08:45:46;;;;;;;1.20;1.10;;;9.60;1.00;;;;;;5071075;28;20439;-56
2021/03/12 08:48:15;;;;;;;1.07;0.80;;;9.50;1.00;;;;;;5071183;28;20485;-60
2021/03/12 08:50:43;;;;;;;2.40;0.90;;;9.70;1.00;;;;;;5070290;28;20472;-55
2021/03/12 08:53:13;;;;;;;1.70;1.30;;;9.70;1.00;;;;;;5075082;28;20511;-57
2021/03/12 08:55:44;;;;;;;2.40;1.20;;;9.80;1.00;;;;;;5077924;28;20542;-57
2021/03/12 08:58:14;;;;;;;1.53;1.10;;;9.80;1.00;;;;;;5069531;28;20445;-56
2021/03/12 09:00:41;;;;;;;1.77;1.00;;;9.80;1.00;;;;;;5070878;28;20799;-57
2021/03/12 09:03:16;;;;;;;2.70;1.17;;;9.80;1.00;;;;;;5071477;28;20479;-56
2021/03/12 09:05:42;;;;;;;2.60;0.80;;;9.90;1.00;;;;;;5071317;28;20438;-56
2021/03/12 09:08:08;;;;;;;3.03;0.93;;;9.90;1.00;;;;;;5070939;28;20518;-56
2021/03/12 09:10:34;;;;;;;1.30;0.70;;;9.70;1.00;;;;;;5071007;28;20429;-56
2021/03/12 09:13:00;;;;;;;5.03;1.37;;;9.70;1.00;;;;;;5070300;28;20435;-55
2021/03/12 09:15:27;;;;;;;2.70;0.97;;;12.10;1.00;;;;;;5069624;28;20175;-58
2021/03/12 09:17:57;;;;;;;2.77;1.13;;;10.10;1.00;;;;;;5070855;28;20544;-55
2021/03/12 09:20:25;;;;;;;2.13;1.00;;;10.00;1.00;;;;;;5074547;28;20524;-55
2021/03/12 09:22:55;;;;;;;2.88;1.27;;;9.90;1.00;;;;;;5073105;28;20426;-55
2021/03/12 09:25:31;;;;;;;2.40;1.20;;;9.80;1.00;;;;;;5073207;28;20448;-54
2021/03/12 09:28:14;;;;;;;2.07;1.00;;;9.70;1.00;;;;;;5073112;28;20285;-56
2021/03/12 09:30:46;;;;;;;1.93;1.23;;;9.80;1.00;;;;;;5074688;28;20942;-55
2021/03/12 09:33:30;;;;;;;5.30;1.40;;;9.80;1.00;;;;;;5074844;28;20762;-56
2021/03/12 09:35:57;;;;;;;2.37;1.40;;;9.80;1.00;;;;;;5073415;28;20425;-57
2021/03/12 09:38:38;;;;;;;1.17;1.07;;;9.60;1.00;;;;;;5074415;28;20471;-56
2021/03/12 09:41:15;;;;;;;1.30;1.00;;;9.60;1.00;;;;;;5084937;28;21026;-56
2021/03/12 09:43:41;;;;;;;2.47;0.80;;;9.90;1.00;;;;;;5073836;28;20434;-55
2021/03/12 09:46:07;;;;;;;1.43;0.93;;;9.90;1.00;;;;;;5074444;28;20495;-56
2021/03/12 09:48:33;;;;;;;1.20;1.10;;;10.10;1.00;;;;;;5072757;28;20978;-57
2021/03/12 09:50:59;;;;;;;4.33;1.50;;;10.10;1.00;;;;;;5073728;28;20627;-56
2021/03/12 09:53:24;;;;;;;5.37;1.47;;;10.10;1.00;;;;;;5073821;28;20208;-57
2021/03/12 09:55:53;;;;;;;1.27;1.00;;;10.30;1.00;;;;;;5073886;28;20966;-56
2021/03/12 09:58:18;;;;;;;3.77;1.60;;;10.50;1.00;;;;;;5073330;28;20199;-57
2021/03/12 10:00:44;;;;;;;1.27;1.17;;;10.70;1.00;;;;;;5076723;28;20959;-56
2021/03/12 10:03:10;;;;;;;1.70;1.17;;;10.70;1.00;;;;;;5073287;28;20188;-57
2021/03/12 10:05:35;;;;;;;2.53;1.40;;;10.50;1.00;;;;;;5071400;28;20293;-58
2021/03/12 10:08:04;;;;;;;3.37;1.67;;;10.80;1.00;;;;;;5073948;28;20254;-56
2021/03/12 10:10:32;;;;;;;4.27;1.50;;;11.10;1.00;;;;;;5081156;28;20192;-56
2021/03/12 10:13:00;;;;;;;1.50;1.40;;;11.20;1.00;;;;;;5081773;28;20434;-56
2021/03/12 10:15:30;;;;;;;4.10;1.50;;;10.90;1.00;;;;;;5073881;28;20510;-57
2021/03/12 10:17:56;;;;;;;1.30;1.07;;;10.80;1.00;;;;;;5073869;28;20430;-58
2021/03/12 10:20:26;;;;;;;3.80;1.80;;;10.60;1.00;;;;;;5074106;28;20430;-55
2021/03/12 10:22:54;;;;;;;1.63;1.00;;;10.20;1.00;;;;;;5079436;28;20179;-56
2021/03/12 10:25:31;;;;;;;2.27;1.03;;;10.10;1.00;;;;;;5071845;28;20431;-57
2021/03/12 10:28:01;;;;;;;4.30;1.10;;;10.00;1.00;;;;;;5089259;28;20496;-57
2021/03/12 10:30:32;;;;;;;2.40;1.00;;;9.90;1.00;;;;;;5073596;28;22100;-56
2021/03/12 10:33:00;;;;;;;4.50;1.37;;;10.10;1.00;;;;;;5073035;28;20436;-58
2021/03/12 10:35:34;;;;;;;2.80;0.90;;;10.40;1.00;;;;;;5072927;28;20437;-55
2021/03/12 10:38:19;;;;;;;1.83;0.77;;;10.30;1.00;;;;;;5070581;28;20491;-58
2021/03/12 10:40:54;;;;;;;2.77;1.30;;;10.80;1.00;;;;;;5071326;28;20446;-58
2021/03/12 10:43:24;;;;;;;1.30;1.00;;;10.90;1.00;;;;;;5070834;28;20473;-57
2021/03/12 10:45:55;;;;;;;2.00;1.17;;;11.00;1.00;;;;;;5075094;28;20961;-58
2021/03/12 10:48:26;;;;;;;2.57;1.00;;;11.00;1.00;;;;;;5073375;28;20467;-57
2021/03/12 10:51:03;;;;;;;1.40;1.30;;;11.00;1.00;;;;;;5077961;28;20476;-55
2021/03/12 10:53:30;;;;;;;2.30;1.40;;;10.90;1.00;;;;;;5072548;28;20476;-56
2021/03/12 10:56:04;;;;;;;1.93;1.10;;;11.00;1.00;;;;;;5072816;28;20470;-58
2021/03/12 10:58:32;;;;;;;3.80;1.13;;;11.20;1.00;;;;;;5072757;28;20451;-57
2021/03/12 11:01:19;;;;;;;2.63;0.90;;;10.80;1.00;;;;;;5072588;28;20451;-57
2021/03/12 11:03:46;;;;;;;2.07;0.87;;;10.60;1.00;;;;;;5073092;28;20965;-57
2021/03/12 11:06:13;;;;;;;3.90;1.20;;;10.90;1.00;;;;;;5072230;28;20437;-57
2021/03/12 11:08:39;;;;;;;3.50;1.27;;;11.00;1.00;;;;;;5071575;28;20964;-59
2021/03/12 11:11:09;;;;;;;6.33;1.23;;;10.80;1.00;;;;;;5071206;28;20487;-56
2021/03/12 11:13:36;;;;;;;3.00;1.10;;;10.70;1.00;;;;;;5070768;28;20550;-55
2021/03/12 11:16:02;;;;;;;2.23;1.30;;;11.00;1.00;;;;;;5071713;28;20440;-56
2021/03/12 11:18:30;;;;;;;2.60;1.53;;;11.10;1.00;;;;;;5069370;28;20448;-57
2021/03/12 11:20:57;;;;;;;1.87;1.10;;;11.10;1.00;;;;;;5072801;28;20439;-58
2021/03/12 11:23:23;;;;;;;2.40;1.10;;;11.10;1.00;;;;;;5079992;28;20462;-57
2021/03/12 11:25:48;;;;;;;3.50;1.23;;;11.40;1.00;;;;;;5072470;28;20486;-57
2021/03/12 11:28:14;;;;;;;3.47;1.67;;;11.50;1.00;;;;;;5084388;28;20682;-56
2021/03/12 11:30:40;;;;;;;1.70;0.90;;;11.30;1.00;;;;;;5071470;28;20189;-56
2021/03/12 11:33:05;;;;;;;2.40;1.27;;;11.50;1.00;;;;;;5072387;28;20555;-57
2021/03/12 11:35:31;;;;;;;2.10;1.00;;;12.10;1.00;;;;;;5086698;28;20572;-57
2021/03/12 11:37:57;;;;;;;2.80;1.10;;;12.60;1.00;;;;;;5093246;28;20277;-58
2021/03/12 11:40:24;;;;;;;2.43;0.90;;;12.90;1.00;;;;;;5081216;28;20264;-56
2021/03/12 11:42:49;;;;;;;2.30;1.07;;;12.40;1.00;;;;;;5071727;28;20544;-57
2021/03/12 11:45:18;;;;;;;4.27;1.37;;;12.20;1.00;;;;;;5072574;28;20528;-56
2021/03/12 11:47:44;;;;;;;3.70;0.90;;;12.10;1.00;;;;;;5077429;28;20692;-56
2021/03/12 11:50:14;;;;;;;2.40;0.90;;;12.00;1.00;;;;;;5072642;28;20460;-57
2021/03/12 11:52:39;;;;;;;2.47;1.23;;;11.40;1.00;;;;;;5072611;28;20448;-57
2021/03/12 11:55:06;;;;;;;2.00;0.90;;;11.40;1.00;;;;;;5074320;28;20434;-55
2021/03/12 11:57:33;;;;;;;3.50;0.97;;;11.10;1.00;;;;;;5072010;28;20181;-57
2021/03/12 11:59:59;;;;;;;3.20;1.10;;;11.00;1.00;;;;;;5071819;28;20439;-57
2021/03/12 12:02:24;;;;;;;1.60;0.80;;;11.10;1.00;;;;;;5071966;28;20453;-55
2021/03/12 12:04:50;;;;;;;1.77;0.87;;;11.20;1.00;;;;;;5071762;28;20441;-55
2021/03/12 12:07:16;;;;;;;1.67;0.80;;;11.10;1.00;;;;;;5071779;28;20285;-56
2021/03/12 12:09:42;;;;;;;2.13;0.90;;;11.40;1.00;;;;;;5070832;28;20194;-56
2021/03/12 12:12:09;;;;;;;2.23;0.90;;;11.40;1.00;;;;;;5071714;28;20237;-56
2021/03/12 12:14:35;;;;;;;1.63;1.10;;;11.20;1.00;;;;;;5071539;28;20768;-56
2021/03/12 12:17:02;;;;;;;2.90;0.90;;;11.00;1.00;;;;;;5070945;28;20542;-56
2021/03/12 12:19:27;;;;;;;1.87;0.90;;;11.00;1.00;;;;;;5071666;28;20461;-55
2021/03/12 12:21:53;;;;;;;2.03;0.80;;;11.10;1.00;;;;;;5071794;28;20436;-55
2021/03/12 12:24:18;;;;;;;1.07;1.00;;;11.00;1.00;;;;;;5071467;28;20270;-56
2021/03/12 12:26:44;;;;;;;1.73;1.03;;;11.00;1.00;;;;;;5071440;28;20303;-56
2021/03/12 12:29:10;;;;;;;1.50;0.80;;;11.20;1.00;;;;;;5071357;28;20288;-56
2021/03/12 12:31:36;;;;;;;1.40;0.87;;;11.30;1.00;;;;;;5071432;28;20514;-55
2021/03/12 12:34:03;;;;;;;2.13;1.20;;;11.30;1.00;;;;;;5071643;28;20223;-56
2021/03/12 12:36:29;;;;;;;1.60;1.30;;;11.40;1.00;;;;;;5071103;28;20501;-59
2021/03/12 12:38:56;;;;;;;4.10;1.47;;;11.40;1.00;;;;;;5071719;28;20791;-57
2021/03/12 12:41:22;;;;;;;1.77;1.10;;;11.60;1.00;;;;;;5071609;28;20518;-58
2021/03/12 12:43:48;;;;;;;1.43;0.87;;;11.80;1.00;;;;;;5071475;28;20555;-58
2021/03/12 12:46:14;;;;;;;1.90;0.97;;;12.10;1.00;;;;;;5070294;28;20230;-58
2021/03/12 12:48:40;;;;;;;1.10;0.80;;;12.30;1.00;;;;;;5070753;28;20474;-58
2021/03/12 12:51:06;;;;;;;3.57;0.97;;;12.80;1.00;;;;;;5071410;28;20229;-56
2021/03/12 12:53:32;;;;;;;1.03;0.77;;;11.70;1.00;;;;;;5071038;28;20235;-58
2021/03/12 12:55:58;;;;;;;3.03;0.93;;;11.50;1.00;;;;;;5071293;28;20447;-58
2021/03/12 12:58:24;;;;;;;2.10;0.87;;;11.70;1.00;;;;;;5078777;28;20486;-55
2021/03/12 13:00:49;;;;;;;1.97;1.00;;;12.10;1.00;;;;;;5091371;28;20207;-59
2021/03/12 13:03:15;;;;;;;3.37;0.90;;;12.30;1.00;;;;;;5090148;28;20201;-56
2021/03/12 13:05:40;;;;;;;2.13;1.20;;;12.20;1.00;;;;;;5080766;28;20565;-56
2021/03/12 13:08:06;;;;;;;3.30;1.10;;;12.10;1.00;;;;;;5070580;28;20209;-57